createdAt,value
2023-01-09T00:02:09.577Z,98085.50
2023-01-09T00:04:37.344Z,98073.56
2023-01-09T00:07:04.591Z,98071.91
2023-01-09T00:09:31.662Z,98071.00
2023-01-09T00:11:58.864Z,98067.38
2023-01-09T00:14:25.795Z,98068.38
2023-01-09T00:16:55.707Z,98056.13
2023-01-09T00:19:22.898Z,98053.41
2023-01-09T00:21:50.161Z,98045.47
2023-01-09T00:24:17.054Z,98041.94
2023-01-09T00:26:44.226Z,98044.47
2023-01-09T00:29:11.722Z,98033.03
2023-01-09T00:31:38.898Z,98020.78
2023-01-09T00:34:07.942Z,98018.88
2023-01-09T00:36:35.107Z,98015.31
2023-01-09T00:39:02.125Z,98013.56
2023-01-09T00:41:34.940Z,98017.03
2023-01-09T00:44:08.313Z,98015.22
2023-01-09T00:46:40.243Z,98009.88
2023-01-09T00:49:09.177Z,98014.91
2023-01-09T00:51:36.845Z,98009.78
2023-01-09T00:54:04.342Z,98014.69
2023-01-09T00:56:32.526Z,98011.09
2023-01-09T00:58:59.562Z,97997.88
2023-01-09T01:01:26.863Z,97998.63
2023-01-09T01:03:53.849Z,97990.59
2023-01-09T01:06:40.048Z,97982.69
2023-01-09T01:09:06.957Z,97975.69
2023-01-09T01:11:34.622Z,97979.97
2023-01-09T01:14:01.662Z,97982.53
2023-01-09T01:16:28.873Z,97981.47
2023-01-09T01:18:56.014Z,97978.66
2023-01-09T01:21:23.283Z,97976.78
2023-01-09T01:23:50.223Z,97977.53
2023-01-09T01:26:17.790Z,97974.78
2023-01-09T01:28:44.773Z,97959.88
2023-01-09T01:31:19.778Z,97966.81
2023-01-09T01:33:47.486Z,97965.91
2023-01-09T01:36:17.520Z,97961.72
2023-01-09T01:38:44.848Z,97956.00
2023-01-09T01:41:12.037Z,97957.09
2023-01-09T01:44:00.323Z,97949.50
2023-01-09T01:46:29.211Z,97950.47
2023-01-09T01:49:12.467Z,97943.59
2023-01-09T01:51:44.953Z,97944.25
2023-01-09T01:54:19.621Z,97936.25
2023-01-09T01:56:50.560Z,97930.25
2023-01-09T01:59:24.117Z,97930.06
2023-01-09T02:01:54.452Z,97918.72
2023-01-09T02:04:21.570Z,97924.69
2023-01-09T02:06:52.465Z,97923.78
2023-01-09T02:09:22.816Z,97916.72
2023-01-09T02:11:54.808Z,97912.38
2023-01-09T02:14:24.574Z,97920.06
2023-01-09T02:17:39.266Z,97913.25
2023-01-09T02:20:31.083Z,97914.25
2023-01-09T02:23:35.343Z,97914.47
2023-01-09T02:26:26.288Z,97917.38
2023-01-09T02:29:02.603Z,97927.31
2023-01-09T02:32:01.570Z,97934.78
2023-01-09T02:34:51.678Z,97936.00
2023-01-09T02:37:40.058Z,97935.38
2023-01-09T02:40:51.580Z,97935.63
2023-01-09T02:43:19.296Z,97932.97
2023-01-09T02:45:46.536Z,97933.00
2023-01-09T02:48:13.647Z,97927.81
2023-01-09T02:50:51.062Z,97931.38
2023-01-09T02:53:36.019Z,97926.25
2023-01-09T02:56:23.713Z,97927.22
2023-01-09T02:59:12.411Z,97926.41
2023-01-09T03:02:17.446Z,97928.97
2023-01-09T03:04:53.627Z,97925.53
2023-01-09T03:07:39.554Z,97922.00
2023-01-09T03:10:16.769Z,97918.66
2023-01-09T03:12:47.395Z,97904.72
2023-01-09T03:18:12.466Z,97909.25
2023-01-09T03:20:41.252Z,97901.59
2023-01-09T03:23:08.759Z,97899.94
2023-01-09T03:25:36.159Z,97902.59
2023-01-09T03:28:13.232Z,97897.56
2023-01-09T03:30:40.451Z,97895.97
2023-01-09T03:33:07.432Z,97898.78
2023-01-09T03:35:34.591Z,97894.72
2023-01-09T03:38:01.490Z,97896.69
2023-01-09T03:40:28.727Z,97881.38
2023-01-09T03:42:55.679Z,97885.16
2023-01-09T03:45:22.842Z,97883.81
2023-01-09T03:47:51.679Z,97876.25
2023-01-09T03:50:20.224Z,97882.63
2023-01-09T03:52:47.100Z,97882.84
2023-01-09T03:55:15.719Z,97890.81
2023-01-09T03:57:42.854Z,97886.69
2023-01-09T04:00:12.775Z,97885.88
2023-01-09T04:02:39.861Z,97884.19
2023-01-09T04:05:07.854Z,97881.66
2023-01-09T04:07:34.750Z,97879.03
2023-01-09T04:10:01.993Z,97886.72
2023-01-09T04:12:28.969Z,97878.84
2023-01-09T04:14:56.173Z,97874.41
2023-01-09T04:17:23.183Z,97880.34
2023-01-09T04:19:50.945Z,97878.53
2023-01-09T04:22:17.879Z,97873.22
2023-01-09T04:24:45.071Z,97874.97
2023-01-09T04:27:13.015Z,97881.03
2023-01-09T04:29:40.212Z,97882.72
2023-01-09T04:32:07.217Z,97878.38
2023-01-09T04:34:34.457Z,97874.97
2023-01-09T04:37:01.319Z,97868.88
2023-01-09T04:39:28.562Z,97864.50
2023-01-09T04:41:55.738Z,97877.31
2023-01-09T04:44:27.579Z,97879.78
2023-01-09T04:46:56.603Z,97873.63
2023-01-09T04:49:23.822Z,97864.13
2023-01-09T04:51:50.805Z,97865.00
2023-01-09T04:54:18.404Z,97865.97
2023-01-09T04:56:45.276Z,97866.97
2023-01-09T04:59:12.843Z,97860.97
2023-01-09T05:01:40.208Z,97861.94
2023-01-09T05:04:07.779Z,97868.06
2023-01-09T05:06:35.124Z,97843.63
2023-01-09T05:09:02.556Z,97846.19
2023-01-09T05:11:29.476Z,97849.69
2023-01-09T05:13:57.004Z,97856.75
2023-01-09T05:16:23.948Z,97849.09
2023-01-09T05:18:56.556Z,97851.84
2023-01-09T05:21:24.739Z,97857.09
2023-01-09T05:23:52.227Z,97856.25
2023-01-09T05:26:26.208Z,97847.59
2023-01-09T05:28:56.561Z,97854.72
2023-01-09T05:31:26.033Z,97853.06
2023-01-09T05:33:54.409Z,97851.47
2023-01-09T05:36:21.405Z,97842.94
2023-01-09T05:38:48.596Z,97861.28
2023-01-09T05:41:15.525Z,97843.06
2023-01-09T05:43:42.758Z,97837.97
2023-01-09T05:46:09.743Z,97847.63
2023-01-09T05:48:37.956Z,97837.34
2023-01-09T05:51:05.043Z,97852.31
2023-01-09T05:53:32.276Z,97845.44
2023-01-09T05:55:59.194Z,97842.06
2023-01-09T05:58:26.741Z,97843.88
2023-01-09T06:00:54.161Z,97842.34
2023-01-09T06:03:21.602Z,97834.66
2023-01-09T06:05:48.524Z,97838.16
2023-01-09T06:08:15.745Z,97826.22
2023-01-09T06:10:42.627Z,97832.34
2023-01-09T06:13:09.930Z,97826.31
2023-01-09T06:15:36.877Z,97818.53
2023-01-09T06:18:04.843Z,97829.81
2023-01-09T06:20:31.834Z,97817.75
2023-01-09T06:22:59.172Z,97821.25
2023-01-09T06:25:26.164Z,97821.22
2023-01-09T06:27:53.353Z,97804.66
2023-01-09T06:30:20.671Z,97814.25
2023-01-09T06:32:51.353Z,97802.13
2023-01-09T06:35:20.582Z,97807.34
2023-01-09T06:37:51.051Z,97803.06
2023-01-09T06:40:18.731Z,97798.78
2023-01-09T06:42:46.816Z,97803.72
2023-01-09T06:45:15.801Z,97808.84
2023-01-09T06:47:43.341Z,97806.06
2023-01-09T06:50:11.234Z,97806.00
2023-01-09T06:52:39.064Z,97809.47
2023-01-09T06:55:06.876Z,97806.88
2023-01-09T06:57:34.454Z,97811.22
2023-01-09T07:00:01.493Z,97804.19
2023-01-09T07:02:28.782Z,97800.56
2023-01-09T07:04:55.885Z,97790.91
2023-01-09T07:07:23.193Z,97794.28
2023-01-09T07:09:50.118Z,97791.63
2023-01-09T07:12:17.503Z,97793.22
2023-01-09T07:14:44.539Z,97802.56
2023-01-09T07:17:14.956Z,97785.94
2023-01-09T07:19:42.374Z,97793.53
2023-01-09T07:22:10.957Z,97801.72
2023-01-09T07:24:37.945Z,97790.19
2023-01-09T07:27:05.279Z,97792.38
2023-01-09T07:29:32.355Z,97795.53
2023-01-09T07:31:59.648Z,97788.16
2023-01-09T07:34:26.539Z,97796.34
2023-01-09T07:36:53.779Z,97789.16
2023-01-09T07:39:20.991Z,97791.47
2023-01-09T07:41:48.244Z,97799.00
2023-01-09T07:44:15.189Z,97799.63
2023-01-09T07:46:42.572Z,97793.38
2023-01-09T07:49:09.517Z,97805.34
2023-01-09T07:51:39.235Z,97806.00
2023-01-09T07:54:06.347Z,97804.97
2023-01-09T07:56:33.585Z,97800.44
2023-01-09T07:59:00.541Z,97800.25
2023-01-09T08:01:27.839Z,97797.25
2023-01-09T08:03:54.827Z,97801.25
2023-01-09T08:06:22.054Z,97795.66
2023-01-09T08:08:50.243Z,97800.66
2023-01-09T08:11:17.142Z,97802.94
2023-01-09T08:13:44.295Z,97805.25
2023-01-09T08:16:11.341Z,97797.91
2023-01-09T08:18:38.714Z,97800.16
2023-01-09T08:21:05.756Z,97800.78
2023-01-09T08:23:33.072Z,97805.78
2023-01-09T08:26:00.014Z,97790.06
2023-01-09T08:28:27.416Z,97793.06
2023-01-09T08:30:54.500Z,97808.34
2023-01-09T08:33:21.918Z,97808.34
2023-01-09T08:35:52.786Z,97804.41
2023-01-09T08:38:22.142Z,97794.69
2023-01-09T08:40:52.111Z,97803.53
2023-01-09T08:43:38.641Z,97801.34
2023-01-09T08:46:36.302Z,97809.56
2023-01-09T08:49:03.641Z,97823.81
2023-01-09T08:51:30.683Z,97803.38
2023-01-09T08:53:58.010Z,97812.50
2023-01-09T08:56:24.939Z,97828.03
2023-01-09T08:58:52.127Z,97825.22
2023-01-09T09:01:19.014Z,97828.72
2023-01-09T09:03:46.527Z,97830.38
2023-01-09T09:06:13.485Z,97830.31
2023-01-09T09:08:40.744Z,97833.03
2023-01-09T09:11:07.676Z,97835.56
2023-01-09T09:13:34.834Z,97834.69
2023-01-09T09:16:01.931Z,97830.38
2023-01-09T09:18:29.182Z,97826.16
2023-01-09T09:20:56.127Z,97820.22
2023-01-09T09:23:23.763Z,97827.34
2023-01-09T09:25:50.851Z,97835.34
2023-01-09T09:28:18.088Z,97817.84
2023-01-09T09:30:45.103Z,97818.13
2023-01-09T09:33:12.375Z,97815.56
2023-01-09T09:35:39.231Z,97824.41
2023-01-09T09:38:06.586Z,97824.41
2023-01-09T09:40:48.676Z,97807.84
2023-01-09T09:43:47.620Z,97815.75
2023-01-09T09:46:41.019Z,97817.47
2023-01-09T09:49:29.128Z,97816.50
2023-01-09T09:52:01.805Z,97819.13
2023-01-09T09:54:41.412Z,97819.06
2023-01-09T09:57:16.410Z,97808.28
2023-01-09T09:59:48.399Z,97815.13
2023-01-09T10:02:45.328Z,97817.09
2023-01-09T10:05:20.234Z,97813.28
2023-01-09T10:07:51.100Z,97808.44
2023-01-09T10:10:33.808Z,97800.66
2023-01-09T10:13:21.483Z,97804.06
2023-01-09T10:16:21.652Z,97805.22
2023-01-09T10:19:06.526Z,97804.38
2023-01-09T10:21:50.638Z,97806.34
2023-01-09T10:24:36.122Z,97792.91
2023-01-09T10:27:16.411Z,97787.78
2023-01-09T10:30:02.307Z,97803.63
2023-01-09T10:32:38.578Z,97802.03
2023-01-09T10:35:39.268Z,97789.97
2023-01-09T10:38:13.817Z,97786.41
2023-01-09T10:40:47.722Z,97801.25
2023-01-09T10:43:46.066Z,97780.31
2023-01-09T10:46:23.526Z,97792.41
2023-01-09T10:48:56.248Z,97798.28
2023-01-09T10:51:32.962Z,97782.94
2023-01-09T10:54:00.133Z,97786.13
2023-01-09T10:56:34.044Z,97789.38
2023-01-09T10:59:01.764Z,97786.00
2023-01-09T11:01:32.375Z,97785.22
2023-01-09T11:04:01.813Z,97780.88
2023-01-09T11:06:46.353Z,97785.50
2023-01-09T11:09:15.275Z,97784.72
2023-01-09T11:11:42.205Z,97757.75
2023-01-09T11:14:22.779Z,97772.59
2023-01-09T11:16:56.781Z,97755.81
2023-01-09T11:19:25.448Z,97765.38
2023-01-09T11:22:07.891Z,97768.13
2023-01-09T11:24:35.357Z,97760.13
2023-01-09T11:27:25.862Z,97749.72
2023-01-09T11:30:20.099Z,97740.81
2023-01-09T11:32:48.497Z,97723.81
2023-01-09T11:35:22.791Z,97730.69
2023-01-09T11:38:08.243Z,97729.75
2023-01-09T11:40:49.459Z,97738.59
2023-01-09T11:43:19.061Z,97746.09
2023-01-09T11:46:00.456Z,97751.34
2023-01-09T11:48:33.256Z,97752.97
2023-01-09T11:51:02.813Z,97749.13
2023-01-09T11:53:29.702Z,97740.56
2023-01-09T11:56:02.085Z,97747.63
2023-01-09T11:58:33.111Z,97765.00
2023-01-09T12:01:16.015Z,97751.56
2023-01-09T12:04:15.976Z,97729.88
2023-01-09T12:07:04.910Z,97734.03
2023-01-09T12:09:51.500Z,97730.81
2023-01-09T12:12:31.263Z,97747.34
2023-01-09T12:15:09.894Z,97726.31
2023-01-09T12:17:55.262Z,97730.47
2023-01-09T12:20:28.323Z,97719.75
2023-01-09T12:23:09.564Z,97730.00
2023-01-09T12:25:50.445Z,97749.94
2023-01-09T12:28:42.300Z,97738.28
2023-01-09T12:31:36.832Z,97736.63
2023-01-09T12:34:06.864Z,97757.91
2023-01-09T12:36:55.789Z,97732.69
2023-01-09T12:39:44.656Z,97724.31
2023-01-09T12:43:00.068Z,97696.75
2023-01-09T12:45:33.042Z,97697.53
2023-01-09T12:48:34.072Z,97696.19
2023-01-09T12:51:08.548Z,97660.22
2023-01-09T12:53:52.656Z,97667.28
2023-01-09T12:56:26.571Z,97653.38
2023-01-09T12:58:58.844Z,97662.28
2023-01-09T13:01:32.995Z,97680.50
2023-01-09T13:04:44.470Z,97631.56
2023-01-09T13:07:20.454Z,97632.88
2023-01-09T13:09:53.318Z,97646.88
2023-01-09T13:12:24.793Z,97634.91
2023-01-09T13:14:57.455Z,97609.38
2023-01-09T13:17:42.231Z,97628.47
2023-01-09T13:20:18.110Z,97627.72
2023-01-09T13:22:50.348Z,97659.06
2023-01-09T13:25:25.899Z,97635.22
2023-01-09T13:28:01.169Z,97632.69
2023-01-09T13:30:47.229Z,97615.88
2023-01-09T13:33:14.416Z,97615.88
2023-01-09T13:35:56.163Z,97576.44
2023-01-09T13:38:26.209Z,97585.56
2023-01-09T13:41:27.143Z,97570.69
2023-01-09T13:44:01.778Z,97562.66
2023-01-09T13:46:53.151Z,97548.75
2023-01-09T13:49:41.399Z,97575.31
2023-01-09T13:52:36.930Z,97561.41
2023-01-09T13:55:04.254Z,97565.94
2023-01-09T13:57:36.413Z,97576.16
2023-01-09T14:00:12.657Z,97566.84
2023-01-09T14:02:39.515Z,97561.41
2023-01-09T14:05:13.432Z,97592.22
2023-01-09T14:07:45.835Z,97560.00
2023-01-09T14:10:25.315Z,97590.50
2023-01-09T14:12:55.754Z,97595.75
2023-01-09T14:15:39.656Z,97574.72
2023-01-09T14:18:36.738Z,97573.69
2023-01-09T14:23:57.383Z,97590.50
2023-01-09T14:26:45.265Z,97589.47
2023-01-09T14:29:36.987Z,97601.88
2023-01-09T14:32:38.936Z,97597.56
2023-01-09T14:35:15.448Z,97596.63
2023-01-09T14:37:45.801Z,97603.75
2023-01-09T14:40:23.890Z,97602.13
2023-01-09T14:42:54.488Z,97607.38
2023-01-09T14:45:25.773Z,97600.25
2023-01-09T14:48:03.987Z,97598.66
2023-01-09T14:50:59.808Z,97610.41
2023-01-09T14:53:34.372Z,97600.72
2023-01-09T14:56:06.077Z,97596.22
2023-01-09T14:58:35.307Z,97601.84
2023-01-09T15:01:08.503Z,97593.31
2023-01-09T15:03:50.117Z,97597.97
2023-01-09T15:06:26.933Z,97606.91
2023-01-09T15:09:07.680Z,97612.22
2023-01-09T15:11:39.249Z,97621.25
2023-01-09T15:14:08.948Z,97620.50
2023-01-09T15:16:36.316Z,97612.78
2023-01-09T15:19:07.785Z,97613.03
2023-01-09T15:21:34.822Z,97614.06
2023-01-09T15:24:32.564Z,97616.88
2023-01-09T15:27:02.050Z,97611.53
2023-01-09T15:29:29.882Z,97614.34
2023-01-09T15:32:18.881Z,97607.66
2023-01-09T15:34:47.885Z,97602.50
2023-01-09T15:37:39.130Z,97611.41
2023-01-09T15:40:08.688Z,97618.53
2023-01-09T15:42:58.245Z,97618.78
2023-01-09T15:45:34.048Z,97621.56
2023-01-09T15:48:30.962Z,97625.22
2023-01-09T15:51:04.641Z,97617.06
2023-01-09T15:53:32.324Z,97614.44
2023-01-09T15:56:08.041Z,97625.06
2023-01-09T15:58:37.687Z,97626.28
2023-01-09T16:01:04.999Z,97625.19
2023-01-09T16:03:32.113Z,97622.56
2023-01-09T16:06:06.953Z,97630.19
2023-01-09T16:08:52.197Z,97618.00
2023-01-09T16:11:31.687Z,97611.63
2023-01-09T16:14:18.776Z,97626.78
2023-01-09T16:16:47.212Z,97622.78
2023-01-09T16:19:29.687Z,97629.47
2023-01-09T16:21:58.984Z,97630.81
2023-01-09T16:24:28.862Z,97636.34
2023-01-09T16:27:33.528Z,97639.69
2023-01-09T16:30:25.288Z,97642.91
2023-01-09T16:32:52.801Z,97648.00
2023-01-09T16:35:26.256Z,97639.06
2023-01-09T16:37:53.423Z,97641.31
2023-01-09T16:40:27.127Z,97639.41
2023-01-09T16:43:00.569Z,97644.06
2023-01-09T16:45:30.339Z,97636.53
2023-01-09T16:47:58.213Z,97649.38
2023-01-09T16:50:25.913Z,97646.50
2023-01-09T16:52:53.505Z,97647.44
2023-01-09T16:55:20.587Z,97649.31
2023-01-09T16:57:48.034Z,97651.41
2023-01-09T17:00:17.885Z,97651.56
2023-01-09T17:02:45.546Z,97652.13
2023-01-09T17:05:12.521Z,97645.66
2023-01-09T17:07:39.888Z,97652.56
2023-01-09T17:10:15.100Z,97648.78
2023-01-09T17:12:42.858Z,97649.56
2023-01-09T17:15:10.833Z,97656.16
2023-01-09T17:17:38.165Z,97652.59
2023-01-09T17:20:14.943Z,97656.38
2023-01-09T17:22:42.209Z,97658.00
2023-01-09T17:25:34.677Z,97655.94
2023-01-09T17:28:22.317Z,97660.91
2023-01-09T17:30:49.332Z,97652.06
2023-01-09T17:33:18.304Z,97655.56
2023-01-09T17:35:45.390Z,97655.56
2023-01-09T17:38:14.458Z,97661.75
2023-01-09T17:40:41.750Z,97650.59
2023-01-09T17:43:08.919Z,97665.50
2023-01-09T17:45:37.917Z,97663.72
2023-01-09T17:48:06.941Z,97675.28
2023-01-09T17:50:34.914Z,97671.63
2023-01-09T17:53:02.141Z,97668.88
2023-01-09T17:55:29.556Z,97672.38
2023-01-09T17:57:56.751Z,97676.75
2023-01-09T18:00:23.767Z,97681.09
2023-01-09T18:02:52.362Z,97682.97
2023-01-09T18:05:20.206Z,97683.88
2023-01-09T18:07:47.874Z,97672.47
2023-01-09T18:10:16.753Z,97677.03
2023-01-09T18:12:46.654Z,97674.41
2023-01-09T18:15:13.900Z,97671.97
2023-01-09T18:17:41.436Z,97676.38
2023-01-09T18:20:09.219Z,97677.22
2023-01-09T18:22:36.879Z,97676.53
2023-01-09T18:25:04.897Z,97675.78
2023-01-09T18:27:32.278Z,97679.63
2023-01-09T18:30:03.602Z,97673.44
2023-01-09T18:32:32.509Z,97672.31
2023-01-09T18:34:59.525Z,97669.63
2023-01-09T18:37:26.720Z,97666.91
2023-01-09T18:39:53.646Z,97666.78
2023-01-09T18:42:20.837Z,97666.72
2023-01-09T18:44:47.784Z,97669.25
2023-01-09T18:47:14.967Z,97674.41
2023-01-09T18:49:41.835Z,97670.75
2023-01-09T18:52:09.009Z,97662.88
2023-01-09T18:54:36.071Z,97669.00
2023-01-09T18:57:03.293Z,97676.00
2023-01-09T18:59:30.176Z,97666.44
2023-01-09T19:01:57.338Z,97670.94
2023-01-09T19:04:24.251Z,97662.78
2023-01-09T19:06:51.552Z,97661.88
2023-01-09T19:09:18.528Z,97660.16
2023-01-09T19:11:45.932Z,97660.16
2023-01-09T19:14:13.165Z,97662.72
2023-01-09T19:16:40.738Z,97663.53
2023-01-09T19:19:08.628Z,97658.28
2023-01-09T19:21:36.083Z,97654.06
2023-01-09T19:24:03.004Z,97667.13
2023-01-09T19:26:33.105Z,97649.84
2023-01-09T19:29:00.976Z,97661.25
2023-01-09T19:31:29.102Z,97657.31
2023-01-09T19:33:57.647Z,97668.84
2023-01-09T19:36:25.411Z,97669.78
2023-01-09T19:38:59.431Z,97676.16
2023-01-09T19:41:27.162Z,97667.53
2023-01-09T19:43:54.208Z,97676.16
2023-01-09T19:46:24.096Z,97673.53
2023-01-09T19:48:52.024Z,97674.66
2023-01-09T19:51:22.013Z,97679.91
2023-01-09T19:53:54.099Z,97678.44
2023-01-09T19:56:23.775Z,97675.19
2023-01-09T19:58:54.883Z,97682.56
2023-01-09T20:01:27.475Z,97694.75
2023-01-09T20:03:56.862Z,97700.84
2023-01-09T20:06:26.453Z,97694.09
2023-01-09T20:08:59.175Z,97696.03
2023-01-09T20:11:28.384Z,97680.34
2023-01-09T20:13:55.894Z,97690.97
2023-01-09T20:16:28.675Z,97690.53
2023-01-09T20:19:00.361Z,97696.81
2023-01-09T20:21:29.087Z,97690.78
2023-01-09T20:23:59.679Z,97700.72
2023-01-09T20:26:27.448Z,97699.94
2023-01-09T20:28:55.323Z,97704.50
2023-01-09T20:31:24.216Z,97700.28
2023-01-09T20:33:51.356Z,97700.59
2023-01-09T20:36:21.725Z,97700.72
2023-01-09T20:38:48.937Z,97707.06
2023-01-09T20:41:23.127Z,97702.72
2023-01-09T20:43:59.000Z,97713.31
2023-01-09T20:46:28.961Z,97714.16
2023-01-09T20:48:57.585Z,97711.63
2023-01-09T20:51:25.688Z,97710.84
2023-01-09T20:53:56.214Z,97710.00
2023-01-09T20:56:25.026Z,97705.59
2023-01-09T20:58:52.663Z,97701.28
2023-01-09T21:01:20.875Z,97701.28
2023-01-09T21:03:48.506Z,97697.91
2023-01-09T21:06:20.131Z,97706.63
2023-01-09T21:08:47.422Z,97702.31
2023-01-09T21:11:15.414Z,97697.97
2023-01-09T21:13:42.473Z,97704.25
2023-01-09T21:16:15.041Z,97702.78
2023-01-09T21:18:44.093Z,97709.03
2023-01-09T21:21:14.216Z,97708.44
2023-01-09T21:23:53.036Z,97710.31
2023-01-09T21:26:22.600Z,97713.94
2023-01-09T21:28:55.132Z,97714.50
2023-01-09T21:31:26.806Z,97716.84
2023-01-09T21:33:54.681Z,97710.16
2023-01-09T21:36:22.257Z,97721.97
2023-01-09T21:38:52.186Z,97714.41
2023-01-09T21:41:39.915Z,97713.03
2023-01-09T21:44:25.543Z,97711.91
2023-01-09T21:46:52.858Z,97719.38
2023-01-09T21:49:21.051Z,97730.13
2023-01-09T21:51:48.253Z,97721.72
2023-01-09T21:54:15.464Z,97722.81
2023-01-09T21:56:42.683Z,97733.28
2023-01-09T21:59:10.278Z,97733.97
2023-01-09T22:01:37.576Z,97739.78
2023-01-09T22:04:04.776Z,97741.91
2023-01-09T22:06:32.073Z,97737.69
2023-01-09T22:08:59.407Z,97743.00
2023-01-09T22:11:26.790Z,97743.13
2023-01-09T22:13:54.108Z,97739.75
2023-01-09T22:16:24.329Z,97743.34
2023-01-09T22:18:51.251Z,97737.44
2023-01-09T22:21:18.697Z,97734.88
2023-01-09T22:23:45.638Z,97738.41
2023-01-09T22:26:15.581Z,97734.94
2023-01-09T22:28:44.921Z,97740.47
2023-01-09T22:31:16.236Z,97733.75
2023-01-09T22:33:43.628Z,97741.03
2023-01-09T22:36:12.085Z,97738.78
2023-01-09T22:38:39.215Z,97740.69
2023-01-09T22:41:06.506Z,97747.03
2023-01-09T22:43:33.474Z,97738.78
2023-01-09T22:46:09.082Z,97745.19
2023-01-09T22:48:37.253Z,97743.50
2023-01-09T22:51:07.732Z,97747.09
2023-01-09T22:53:34.901Z,97749.00
2023-01-09T22:56:05.238Z,97741.22
2023-01-09T22:58:32.644Z,97739.59
2023-01-09T23:01:00.066Z,97742.28
2023-01-09T23:03:27.671Z,97744.09
2023-01-09T23:06:27.216Z,97732.97
2023-01-09T23:08:54.321Z,97734.63
2023-01-09T23:11:46.394Z,97734.69
2023-01-09T23:14:13.677Z,97733.78
2023-01-09T23:16:41.567Z,97722.50
2023-01-09T23:19:09.997Z,97726.00
2023-01-09T23:21:37.511Z,97733.00
2023-01-09T23:24:07.054Z,97733.00
2023-01-09T23:26:35.505Z,97739.91
2023-01-09T23:29:02.520Z,97735.56
2023-01-09T23:31:29.722Z,97746.81
2023-01-09T23:33:56.767Z,97750.31
2023-01-09T23:36:24.009Z,97759.22
2023-01-09T23:38:51.026Z,97759.38
2023-01-09T23:41:18.508Z,97765.50
2023-01-09T23:43:46.071Z,97768.09
2023-01-09T23:46:13.525Z,97766.41
2023-01-09T23:48:40.520Z,97773.28
2023-01-09T23:51:07.970Z,97771.38
2023-01-09T23:53:34.945Z,97771.31
2023-01-09T23:56:03.144Z,97770.25
2023-01-09T23:58:30.052Z,97767.59
